sensor_id;sensor_type;location;lat;lon;timestamp;P1;durP1;ratioP1;P2;durP2;ratioP2
15833;SDS011;8017;50.812;4.934;2023-04-22T00:01:14;11.60;;;10.40;;
15833;SDS011;8017;50.812;4.934;2023-04-22T00:04:16;12.20;;;10.03;;
15833;SDS011;8017;50.812;4.934;2023-04-22T00:07:20;12.90;;;9.93;;
15833;SDS011;8017;50.812;4.934;2023-04-22T00:10:22;13.80;;;10.47;;
15833;SDS011;8017;50.812;4.934;2023-04-22T00:13:24;11.83;;;10.53;;
15833;SDS011;8017;50.812;4.934;2023-04-22T00:16:27;12.73;;;10.83;;
15833;SDS011;8017;50.812;4.934;2023-04-22T00:19:29;11.73;;;10.53;;
15833;SDS011;8017;50.812;4.934;2023-04-22T00:22:31;11.63;;;10.13;;
15833;SDS011;8017;50.812;4.934;2023-04-22T00:25:32;11.30;;;10.17;;
15833;SDS011;8017;50.812;4.934;2023-04-22T00:28:34;13.63;;;11.33;;
15833;SDS011;8017;50.812;4.934;2023-04-22T00:31:38;12.80;;;10.80;;
15833;SDS011;8017;50.812;4.934;2023-04-22T00:34:39;11.33;;;10.23;;
15833;SDS011;8017;50.812;4.934;2023-04-22T00:37:41;11.77;;;10.67;;
15833;SDS011;8017;50.812;4.934;2023-04-22T00:40:43;12.17;;;10.97;;
15833;SDS011;8017;50.812;4.934;2023-04-22T00:43:45;11.87;;;10.67;;
15833;SDS011;8017;50.812;4.934;2023-04-22T00:46:48;13.37;;;11.97;;
15833;SDS011;8017;50.812;4.934;2023-04-22T00:49:52;13.87;;;12.37;;
15833;SDS011;8017;50.812;4.934;2023-04-22T00:52:54;12.70;;;11.40;;
15833;SDS011;8017;50.812;4.934;2023-04-22T00:55:56;13.27;;;11.83;;
15833;SDS011;8017;50.812;4.934;2023-04-22T00:58:59;13.53;;;12.10;;
15833;SDS011;8017;50.812;4.934;2023-04-22T01:02:02;14.77;;;13.23;;
15833;SDS011;8017;50.812;4.934;2023-04-22T01:05:04;13.93;;;12.40;;
15833;SDS011;8017;50.812;4.934;2023-04-22T01:08:08;14.03;;;12.70;;
15833;SDS011;8017;50.812;4.934;2023-04-22T01:11:10;13.77;;;12.40;;
15833;SDS011;8017;50.812;4.934;2023-04-22T01:14:12;14.73;;;13.23;;
15833;SDS011;8017;50.812;4.934;2023-04-22T01:17:15;14.70;;;13.20;;
15833;SDS011;8017;50.812;4.934;2023-04-22T01:20:18;14.10;;;12.30;;
15833;SDS011;8017;50.812;4.934;2023-04-22T01:23:21;14.43;;;12.97;;
15833;SDS011;8017;50.812;4.934;2023-04-22T01:26:23;13.13;;;11.73;;
15833;SDS011;8017;50.812;4.934;2023-04-22T01:29:25;13.80;;;12.40;;
15833;SDS011;8017;50.812;4.934;2023-04-22T01:32:27;14.93;;;13.43;;
15833;SDS011;8017;50.812;4.934;2023-04-22T01:35:31;15.00;;;13.07;;
15833;SDS011;8017;50.812;4.934;2023-04-22T01:38:37;15.73;;;13.43;;
15833;SDS011;8017;50.812;4.934;2023-04-22T01:41:39;15.53;;;13.83;;
15833;SDS011;8017;50.812;4.934;2023-04-22T01:44:41;14.67;;;13.17;;
15833;SDS011;8017;50.812;4.934;2023-04-22T01:47:43;14.37;;;12.87;;
15833;SDS011;8017;50.812;4.934;2023-04-22T01:50:45;15.27;;;13.43;;
15833;SDS011;8017;50.812;4.934;2023-04-22T01:53:48;16.40;;;14.10;;
15833;SDS011;8017;50.812;4.934;2023-04-22T01:56:52;15.40;;;13.90;;
15833;SDS011;8017;50.812;4.934;2023-04-22T01:59:54;14.27;;;12.77;;
15833;SDS011;8017;50.812;4.934;2023-04-22T02:02:57;14.97;;;13.37;;
15833;SDS011;8017;50.812;4.934;2023-04-22T02:05:59;14.50;;;13.00;;
15833;SDS011;8017;50.812;4.934;2023-04-22T02:09:02;14.73;;;13.27;;
15833;SDS011;8017;50.812;4.934;2023-04-22T02:12:04;15.07;;;13.57;;
15833;SDS011;8017;50.812;4.934;2023-04-22T02:15:07;16.20;;;13.53;;
15833;SDS011;8017;50.812;4.934;2023-04-22T02:18:09;14.70;;;13.20;;
15833;SDS011;8017;50.812;4.934;2023-04-22T02:21:12;15.20;;;13.60;;
15833;SDS011;8017;50.812;4.934;2023-04-22T02:24:15;16.83;;;15.13;;
15833;SDS011;8017;50.812;4.934;2023-04-22T02:27:17;16.43;;;14.73;;
15833;SDS011;8017;50.812;4.934;2023-04-22T02:30:20;16.00;;;14.03;;
15833;SDS011;8017;50.812;4.934;2023-04-22T02:33:22;15.63;;;14.00;;
15833;SDS011;8017;50.812;4.934;2023-04-22T02:36:24;15.70;;;14.10;;
15833;SDS011;8017;50.812;4.934;2023-04-22T02:39:28;16.50;;;14.80;;
15833;SDS011;8017;50.812;4.934;2023-04-22T02:42:30;16.00;;;14.40;;
15833;SDS011;8017;50.812;4.934;2023-04-22T02:45:32;16.57;;;14.13;;
15833;SDS011;8017;50.812;4.934;2023-04-22T02:48:33;17.87;;;15.20;;
15833;SDS011;8017;50.812;4.934;2023-04-22T02:51:36;18.10;;;15.60;;
15833;SDS011;8017;50.812;4.934;2023-04-22T02:54:39;16.00;;;14.30;;
15833;SDS011;8017;50.812;4.934;2023-04-22T02:57:41;19.53;;;16.30;;
15833;SDS011;8017;50.812;4.934;2023-04-22T03:00:43;18.10;;;16.20;;
15833;SDS011;8017;50.812;4.934;2023-04-22T03:03:45;17.10;;;15.40;;
15833;SDS011;8017;50.812;4.934;2023-04-22T03:06:47;17.47;;;15.67;;
15833;SDS011;8017;50.812;4.934;2023-04-22T03:09:50;16.90;;;15.10;;
15833;SDS011;8017;50.812;4.934;2023-04-22T03:12:54;16.50;;;14.80;;
15833;SDS011;8017;50.812;4.934;2023-04-22T03:15:56;17.27;;;15.57;;
15833;SDS011;8017;50.812;4.934;2023-04-22T03:18:58;19.33;;;17.20;;
15833;SDS011;8017;50.812;4.934;2023-04-22T03:22:00;18.00;;;16.10;;
15833;SDS011;8017;50.812;4.934;2023-04-22T03:25:04;21.23;;;17.37;;
15833;SDS011;8017;50.812;4.934;2023-04-22T03:28:06;22.73;;;17.70;;
15833;SDS011;8017;50.812;4.934;2023-04-22T03:31:08;19.87;;;17.33;;
15833;SDS011;8017;50.812;4.934;2023-04-22T03:34:10;20.00;;;17.83;;
15833;SDS011;8017;50.812;4.934;2023-04-22T03:37:12;19.43;;;17.43;;
15833;SDS011;8017;50.812;4.934;2023-04-22T03:40:15;20.63;;;18.37;;
15833;SDS011;8017;50.812;4.934;2023-04-22T03:43:17;21.80;;;18.17;;
15833;SDS011;8017;50.812;4.934;2023-04-22T03:46:19;24.40;;;20.37;;
15833;SDS011;8017;50.812;4.934;2023-04-22T03:49:21;23.03;;;19.63;;
15833;SDS011;8017;50.812;4.934;2023-04-22T03:52:23;23.83;;;19.63;;
15833;SDS011;8017;50.812;4.934;2023-04-22T03:55:26;21.73;;;19.43;;
15833;SDS011;8017;50.812;4.934;2023-04-22T03:58:28;21.13;;;18.77;;
15833;SDS011;8017;50.812;4.934;2023-04-22T04:01:30;21.57;;;19.33;;
15833;SDS011;8017;50.812;4.934;2023-04-22T04:04:32;20.67;;;18.57;;
15833;SDS011;8017;50.812;4.934;2023-04-22T04:07:33;20.80;;;18.70;;
15833;SDS011;8017;50.812;4.934;2023-04-22T04:10:37;24.40;;;21.20;;
15833;SDS011;8017;50.812;4.934;2023-04-22T04:13:39;23.57;;;20.33;;
15833;SDS011;8017;50.812;4.934;2023-04-22T04:16:41;24.33;;;20.63;;
15833;SDS011;8017;50.812;4.934;2023-04-22T04:19:43;22.10;;;19.47;;
15833;SDS011;8017;50.812;4.934;2023-04-22T04:22:44;20.53;;;18.33;;
15833;SDS011;8017;50.812;4.934;2023-04-22T04:25:48;19.83;;;17.70;;
15833;SDS011;8017;50.812;4.934;2023-04-22T04:28:51;22.83;;;17.70;;
15833;SDS011;8017;50.812;4.934;2023-04-22T04:31:53;20.20;;;18.03;;
15833;SDS011;8017;50.812;4.934;2023-04-22T04:34:55;20.30;;;17.83;;
15833;SDS011;8017;50.812;4.934;2023-04-22T04:37:59;20.93;;;18.83;;
15833;SDS011;8017;50.812;4.934;2023-04-22T04:41:02;20.90;;;18.67;;
15833;SDS011;8017;50.812;4.934;2023-04-22T04:44:04;21.10;;;18.80;;
15833;SDS011;8017;50.812;4.934;2023-04-22T04:47:06;21.00;;;18.63;;
15833;SDS011;8017;50.812;4.934;2023-04-22T04:50:08;19.63;;;17.60;;
15833;SDS011;8017;50.812;4.934;2023-04-22T04:53:10;20.33;;;18.03;;
15833;SDS011;8017;50.812;4.934;2023-04-22T04:56:14;21.33;;;18.87;;
15833;SDS011;8017;50.812;4.934;2023-04-22T04:59:16;19.83;;;17.77;;
15833;SDS011;8017;50.812;4.934;2023-04-22T05:02:18;20.60;;;17.97;;
15833;SDS011;8017;50.812;4.934;2023-04-22T05:05:20;20.37;;;18.27;;
15833;SDS011;8017;50.812;4.934;2023-04-22T05:08:22;19.77;;;17.43;;
15833;SDS011;8017;50.812;4.934;2023-04-22T05:11:25;22.17;;;18.97;;
15833;SDS011;8017;50.812;4.934;2023-04-22T05:14:27;22.20;;;19.43;;
15833;SDS011;8017;50.812;4.934;2023-04-22T05:17:29;24.70;;;20.77;;
15833;SDS011;8017;50.812;4.934;2023-04-22T05:20:31;25.53;;;22.80;;
15833;SDS011;8017;50.812;4.934;2023-04-22T05:23:33;26.67;;;22.27;;
15833;SDS011;8017;50.812;4.934;2023-04-22T05:26:36;26.23;;;23.50;;
15833;SDS011;8017;50.812;4.934;2023-04-22T05:29:38;25.00;;;22.40;;
15833;SDS011;8017;50.812;4.934;2023-04-22T05:32:40;24.83;;;22.20;;
15833;SDS011;8017;50.812;4.934;2023-04-22T05:35:42;26.40;;;22.77;;
15833;SDS011;8017;50.812;4.934;2023-04-22T05:38:45;24.73;;;22.10;;
15833;SDS011;8017;50.812;4.934;2023-04-22T05:41:50;24.63;;;22.13;;
15833;SDS011;8017;50.812;4.934;2023-04-22T05:44:53;23.37;;;20.87;;
15833;SDS011;8017;50.812;4.934;2023-04-22T05:47:55;24.13;;;21.57;;
15833;SDS011;8017;50.812;4.934;2023-04-22T05:50:57;23.23;;;20.77;;
15833;SDS011;8017;50.812;4.934;2023-04-22T05:53:59;26.53;;;22.37;;
15833;SDS011;8017;50.812;4.934;2023-04-22T05:57:02;24.33;;;21.93;;
15833;SDS011;8017;50.812;4.934;2023-04-22T06:00:04;22.53;;;20.13;;
15833;SDS011;8017;50.812;4.934;2023-04-22T06:03:08;23.10;;;20.57;;
15833;SDS011;8017;50.812;4.934;2023-04-22T06:06:10;22.57;;;20.17;;
15833;SDS011;8017;50.812;4.934;2023-04-22T06:09:12;22.80;;;20.50;;
15833;SDS011;8017;50.812;4.934;2023-04-22T06:12:15;21.47;;;19.27;;
15833;SDS011;8017;50.812;4.934;2023-04-22T06:15:19;23.17;;;20.80;;
15833;SDS011;8017;50.812;4.934;2023-04-22T06:18:21;22.10;;;19.67;;
15833;SDS011;8017;50.812;4.934;2023-04-22T06:21:22;20.87;;;18.77;;
15833;SDS011;8017;50.812;4.934;2023-04-22T06:24:24;20.73;;;18.63;;
15833;SDS011;8017;50.812;4.934;2023-04-22T06:27:28;21.50;;;19.30;;
15833;SDS011;8017;50.812;4.934;2023-04-22T06:30:30;21.60;;;19.27;;
15833;SDS011;8017;50.812;4.934;2023-04-22T06:33:31;20.23;;;18.10;;
15833;SDS011;8017;50.812;4.934;2023-04-22T06:36:33;19.87;;;17.77;;
15833;SDS011;8017;50.812;4.934;2023-04-22T06:39:37;19.60;;;17.60;;
15833;SDS011;8017;50.812;4.934;2023-04-22T06:42:40;19.33;;;17.40;;
15833;SDS011;8017;50.812;4.934;2023-04-22T06:45:42;19.40;;;17.47;;
15833;SDS011;8017;50.812;4.934;2023-04-22T06:48:44;20.27;;;18.27;;
15833;SDS011;8017;50.812;4.934;2023-04-22T06:51:46;19.57;;;17.33;;
15833;SDS011;8017;50.812;4.934;2023-04-22T06:54:48;17.57;;;15.63;;
15833;SDS011;8017;50.812;4.934;2023-04-22T06:57:51;18.03;;;16.13;;
15833;SDS011;8017;50.812;4.934;2023-04-22T07:00:53;16.57;;;14.97;;
15833;SDS011;8017;50.812;4.934;2023-04-22T07:03:55;18.27;;;16.47;;
15833;SDS011;8017;50.812;4.934;2023-04-22T07:06:57;16.80;;;15.20;;
15833;SDS011;8017;50.812;4.934;2023-04-22T07:09:59;16.20;;;14.60;;
15833;SDS011;8017;50.812;4.934;2023-04-22T07:13:02;18.90;;;16.83;;
15833;SDS011;8017;50.812;4.934;2023-04-22T07:16:04;16.97;;;15.17;;
15833;SDS011;8017;50.812;4.934;2023-04-22T07:19:06;18.30;;;16.37;;
15833;SDS011;8017;50.812;4.934;2023-04-22T07:22:08;16.23;;;14.70;;
15833;SDS011;8017;50.812;4.934;2023-04-22T07:25:10;17.13;;;14.53;;
15833;SDS011;8017;50.812;4.934;2023-04-22T07:28:13;15.20;;;13.70;;
15833;SDS011;8017;50.812;4.934;2023-04-22T07:31:15;15.37;;;13.37;;
15833;SDS011;8017;50.812;4.934;2023-04-22T07:34:17;13.30;;;12.07;;
15833;SDS011;8017;50.812;4.934;2023-04-22T07:37:20;13.90;;;12.40;;
15833;SDS011;8017;50.812;4.934;2023-04-22T07:40:22;13.23;;;11.93;;
15833;SDS011;8017;50.812;4.934;2023-04-22T07:43:25;17.13;;;13.23;;
15833;SDS011;8017;50.812;4.934;2023-04-22T07:46:27;13.30;;;11.90;;
15833;SDS011;8017;50.812;4.934;2023-04-22T07:49:29;13.17;;;11.67;;
15833;SDS011;8017;50.812;4.934;2023-04-22T07:52:31;12.73;;;11.50;;
15833;SDS011;8017;50.812;4.934;2023-04-22T07:55:33;13.03;;;11.40;;
15833;SDS011;8017;50.812;4.934;2023-04-22T07:58:36;10.73;;;9.70;;
15833;SDS011;8017;50.812;4.934;2023-04-22T08:01:38;10.70;;;9.60;;
15833;SDS011;8017;50.812;4.934;2023-04-22T08:04:40;11.83;;;10.63;;
15833;SDS011;8017;50.812;4.934;2023-04-22T08:07:42;11.07;;;9.97;;
15833;SDS011;8017;50.812;4.934;2023-04-22T08:10:44;11.87;;;9.73;;
15833;SDS011;8017;50.812;4.934;2023-04-22T08:13:47;10.57;;;9.40;;
15833;SDS011;8017;50.812;4.934;2023-04-22T08:16:50;13.77;;;10.53;;
15833;SDS011;8017;50.812;4.934;2023-04-22T08:19:51;11.67;;;10.30;;
15833;SDS011;8017;50.812;4.934;2023-04-22T08:22:53;11.20;;;10.00;;
15833;SDS011;8017;50.812;4.934;2023-04-22T08:25:59;9.97;;;8.97;;
15833;SDS011;8017;50.812;4.934;2023-04-22T08:29:02;11.07;;;10.07;;
15833;SDS011;8017;50.812;4.934;2023-04-22T08:32:04;12.77;;;11.10;;
15833;SDS011;8017;50.812;4.934;2023-04-22T08:35:07;10.27;;;9.27;;
15833;SDS011;8017;50.812;4.934;2023-04-22T08:38:09;9.90;;;8.90;;
15833;SDS011;8017;50.812;4.934;2023-04-22T08:41:11;9.67;;;8.63;;
15833;SDS011;8017;50.812;4.934;2023-04-22T08:44:15;8.80;;;7.90;;
15833;SDS011;8017;50.812;4.934;2023-04-22T08:47:17;8.57;;;7.60;;
15833;SDS011;8017;50.812;4.934;2023-04-22T08:50:20;9.27;;;8.30;;
15833;SDS011;8017;50.812;4.934;2023-04-22T08:53:22;10.03;;;7.80;;
15833;SDS011;8017;50.812;4.934;2023-04-22T08:56:24;8.53;;;7.60;;
15833;SDS011;8017;50.812;4.934;2023-04-22T08:59:29;7.70;;;7.00;;
15833;SDS011;8017;50.812;4.934;2023-04-22T09:02:31;7.70;;;6.40;;
15833;SDS011;8017;50.812;4.934;2023-04-22T09:05:34;10.17;;;6.40;;
15833;SDS011;8017;50.812;4.934;2023-04-22T09:08:38;6.73;;;6.10;;
15833;SDS011;8017;50.812;4.934;2023-04-22T09:11:40;7.77;;;6.60;;
15833;SDS011;8017;50.812;4.934;2023-04-22T09:14:43;6.37;;;5.70;;
15833;SDS011;8017;50.812;4.934;2023-04-22T09:17:45;6.83;;;6.23;;
15833;SDS011;8017;50.812;4.934;2023-04-22T09:20:47;7.00;;;6.30;;
15833;SDS011;8017;50.812;4.934;2023-04-22T09:23:54;6.37;;;5.77;;
15833;SDS011;8017;50.812;4.934;2023-04-22T09:27:00;7.23;;;5.40;;
15833;SDS011;8017;50.812;4.934;2023-04-22T09:30:05;6.00;;;5.40;;
15833;SDS011;8017;50.812;4.934;2023-04-22T09:33:09;4.90;;;4.27;;
15833;SDS011;8017;50.812;4.934;2023-04-22T09:36:12;3.90;;;3.50;;
15833;SDS011;8017;50.812;4.934;2023-04-22T09:39:14;4.20;;;3.80;;
15833;SDS011;8017;50.812;4.934;2023-04-22T09:42:16;4.63;;;3.30;;
15833;SDS011;8017;50.812;4.934;2023-04-22T09:45:27;5.13;;;3.93;;
15833;SDS011;8017;50.812;4.934;2023-04-22T09:48:31;5.90;;;4.07;;
15833;SDS011;8017;50.812;4.934;2023-04-22T09:51:33;7.37;;;3.77;;
15833;SDS011;8017;50.812;4.934;2023-04-22T09:54:36;4.67;;;3.80;;
15833;SDS011;8017;50.812;4.934;2023-04-22T09:57:38;6.07;;;4.30;;
15833;SDS011;8017;50.812;4.934;2023-04-22T10:00:41;4.30;;;3.47;;
15833;SDS011;8017;50.812;4.934;2023-04-22T10:03:46;5.57;;;3.70;;
15833;SDS011;8017;50.812;4.934;2023-04-22T10:06:48;7.17;;;4.30;;
15833;SDS011;8017;50.812;4.934;2023-04-22T10:09:50;6.50;;;3.97;;
15833;SDS011;8017;50.812;4.934;2023-04-22T10:12:52;5.93;;;4.53;;
15833;SDS011;8017;50.812;4.934;2023-04-22T10:15:56;6.70;;;4.17;;
15833;SDS011;8017;50.812;4.934;2023-04-22T10:18:58;6.37;;;4.23;;
15833;SDS011;8017;50.812;4.934;2023-04-22T10:22:03;5.57;;;4.03;;
15833;SDS011;8017;50.812;4.934;2023-04-22T10:25:09;6.47;;;4.83;;
15833;SDS011;8017;50.812;4.934;2023-04-22T10:28:14;4.87;;;4.47;;
15833;SDS011;8017;50.812;4.934;2023-04-22T10:31:21;5.87;;;4.23;;
15833;SDS011;8017;50.812;4.934;2023-04-22T10:34:23;7.90;;;4.77;;
15833;SDS011;8017;50.812;4.934;2023-04-22T10:37:25;7.47;;;4.50;;
15833;SDS011;8017;50.812;4.934;2023-04-22T10:40:27;6.50;;;4.60;;
15833;SDS011;8017;50.812;4.934;2023-04-22T10:43:39;5.50;;;4.47;;
15833;SDS011;8017;50.812;4.934;2023-04-22T10:46:55;5.73;;;4.97;;
15833;SDS011;8017;50.812;4.934;2023-04-22T10:50:15;6.43;;;4.87;;
15833;SDS011;8017;50.812;4.934;2023-04-22T10:53:36;5.93;;;5.20;;
15833;SDS011;8017;50.812;4.934;2023-04-22T11:03:26;5.50;;;5.00;;
15833;SDS011;8017;50.812;4.934;2023-04-22T11:06:29;6.07;;;4.60;;
15833;SDS011;8017;50.812;4.934;2023-04-22T11:09:31;4.37;;;3.97;;
15833;SDS011;8017;50.812;4.934;2023-04-22T11:15:53;4.73;;;3.83;;
15833;SDS011;8017;50.812;4.934;2023-04-22T11:18:57;4.80;;;3.57;;
15833;SDS011;8017;50.812;4.934;2023-04-22T11:21:59;4.23;;;3.60;;
15833;SDS011;8017;50.812;4.934;2023-04-22T11:25:02;3.50;;;3.20;;
15833;SDS011;8017;50.812;4.934;2023-04-22T11:28:05;4.80;;;3.60;;
15833;SDS011;8017;50.812;4.934;2023-04-22T11:31:07;5.37;;;4.03;;
15833;SDS011;8017;50.812;4.934;2023-04-22T11:34:11;4.27;;;3.40;;
15833;SDS011;8017;50.812;4.934;2023-04-22T11:37:13;3.77;;;3.10;;
15833;SDS011;8017;50.812;4.934;2023-04-22T11:40:19;3.40;;;3.10;;
15833;SDS011;8017;50.812;4.934;2023-04-22T11:43:24;5.33;;;3.63;;
15833;SDS011;8017;50.812;4.934;2023-04-22T11:46:29;3.47;;;3.17;;
15833;SDS011;8017;50.812;4.934;2023-04-22T11:49:38;3.53;;;3.03;;
15833;SDS011;8017;50.812;4.934;2023-04-22T11:52:42;3.97;;;2.83;;
15833;SDS011;8017;50.812;4.934;2023-04-22T11:55:46;5.50;;;3.57;;
15833;SDS011;8017;50.812;4.934;2023-04-22T11:58:51;3.87;;;3.27;;
15833;SDS011;8017;50.812;4.934;2023-04-22T12:01:53;3.83;;;3.00;;
15833;SDS011;8017;50.812;4.934;2023-04-22T12:04:56;4.63;;;3.13;;
15833;SDS011;8017;50.812;4.934;2023-04-22T12:07:59;4.60;;;3.13;;
15833;SDS011;8017;50.812;4.934;2023-04-22T12:11:03;3.40;;;3.10;;
15833;SDS011;8017;50.812;4.934;2023-04-22T12:14:08;2.63;;;2.43;;
15833;SDS011;8017;50.812;4.934;2023-04-22T12:17:11;2.50;;;2.30;;
15833;SDS011;8017;50.812;4.934;2023-04-22T12:20:15;2.50;;;1.97;;
15833;SDS011;8017;50.812;4.934;2023-04-22T12:23:17;2.93;;;1.93;;
15833;SDS011;8017;50.812;4.934;2023-04-22T12:26:22;1.80;;;1.70;;
15833;SDS011;8017;50.812;4.934;2023-04-22T12:29:26;2.30;;;2.10;;
15833;SDS011;8017;50.812;4.934;2023-04-22T12:32:30;3.07;;;2.50;;
15833;SDS011;8017;50.812;4.934;2023-04-22T12:35:34;4.57;;;2.80;;
15833;SDS011;8017;50.812;4.934;2023-04-22T12:38:36;3.23;;;2.93;;
15833;SDS011;8017;50.812;4.934;2023-04-22T12:41:38;5.27;;;3.13;;
15833;SDS011;8017;50.812;4.934;2023-04-22T12:44:39;3.30;;;3.00;;
15833;SDS011;8017;50.812;4.934;2023-04-22T12:47:42;3.97;;;3.60;;
15833;SDS011;8017;50.812;4.934;2023-04-22T12:50:46;4.33;;;3.60;;
15833;SDS011;8017;50.812;4.934;2023-04-22T12:53:48;4.50;;;3.43;;
15833;SDS011;8017;50.812;4.934;2023-04-22T12:56:50;3.30;;;3.10;;
15833;SDS011;8017;50.812;4.934;2023-04-22T12:59:52;4.40;;;3.67;;
15833;SDS011;8017;50.812;4.934;2023-04-22T13:02:54;4.80;;;3.87;;
15833;SDS011;8017;50.812;4.934;2023-04-22T13:05:57;4.50;;;4.00;;
15833;SDS011;8017;50.812;4.934;2023-04-22T13:08:59;4.50;;;4.10;;
15833;SDS011;8017;50.812;4.934;2023-04-22T13:12:02;4.80;;;4.40;;
15833;SDS011;8017;50.812;4.934;2023-04-22T13:15:05;4.33;;;3.93;;
15833;SDS011;8017;50.812;4.934;2023-04-22T13:18:08;4.90;;;3.63;;
15833;SDS011;8017;50.812;4.934;2023-04-22T13:21:11;5.00;;;4.13;;
15833;SDS011;8017;50.812;4.934;2023-04-22T13:24:14;4.83;;;4.03;;
15833;SDS011;8017;50.812;4.934;2023-04-22T13:27:16;6.80;;;4.03;;
15833;SDS011;8017;50.812;4.934;2023-04-22T13:30:18;5.10;;;3.67;;
15833;SDS011;8017;50.812;4.934;2023-04-22T13:33:20;5.13;;;4.53;;
15833;SDS011;8017;50.812;4.934;2023-04-22T13:36:23;6.00;;;4.30;;
15833;SDS011;8017;50.812;4.934;2023-04-22T13:39:26;4.60;;;4.20;;
15833;SDS011;8017;50.812;4.934;2023-04-22T13:42:31;4.33;;;3.90;;
15833;SDS011;8017;50.812;4.934;2023-04-22T13:45:33;5.03;;;3.70;;
15833;SDS011;8017;50.812;4.934;2023-04-22T13:48:35;5.33;;;3.63;;
15833;SDS011;8017;50.812;4.934;2023-04-22T13:51:39;5.30;;;3.97;;
15833;SDS011;8017;50.812;4.934;2023-04-22T13:54:41;4.57;;;3.67;;
15833;SDS011;8017;50.812;4.934;2023-04-22T13:57:43;4.77;;;3.87;;
15833;SDS011;8017;50.812;4.934;2023-04-22T14:00:45;4.67;;;4.17;;
15833;SDS011;8017;50.812;4.934;2023-04-22T14:03:47;5.17;;;3.90;;
15833;SDS011;8017;50.812;4.934;2023-04-22T14:06:51;4.70;;;3.77;;
15833;SDS011;8017;50.812;4.934;2023-04-22T14:09:53;5.17;;;4.00;;
15833;SDS011;8017;50.812;4.934;2023-04-22T14:12:54;5.03;;;4.53;;
15833;SDS011;8017;50.812;4.934;2023-04-22T14:16:02;4.33;;;3.93;;
15833;SDS011;8017;50.812;4.934;2023-04-22T14:19:18;4.80;;;3.60;;
15833;SDS011;8017;50.812;4.934;2023-04-22T14:22:32;4.53;;;4.13;;
15833;SDS011;8017;50.812;4.934;2023-04-22T14:25:34;4.53;;;4.00;;
15833;SDS011;8017;50.812;4.934;2023-04-22T14:28:36;5.17;;;4.13;;
15833;SDS011;8017;50.812;4.934;2023-04-22T14:31:38;4.17;;;3.83;;
15833;SDS011;8017;50.812;4.934;2023-04-22T14:34:40;4.00;;;3.60;;
15833;SDS011;8017;50.812;4.934;2023-04-22T14:37:44;5.73;;;3.60;;
15833;SDS011;8017;50.812;4.934;2023-04-22T14:40:46;4.23;;;3.83;;
15833;SDS011;8017;50.812;4.934;2023-04-22T14:43:48;4.47;;;4.07;;
15833;SDS011;8017;50.812;4.934;2023-04-22T14:46:50;4.30;;;3.90;;
15833;SDS011;8017;50.812;4.934;2023-04-22T14:49:52;5.17;;;4.10;;
15833;SDS011;8017;50.812;4.934;2023-04-22T14:52:55;4.53;;;4.13;;
15833;SDS011;8017;50.812;4.934;2023-04-22T14:55:57;5.60;;;4.50;;
15833;SDS011;8017;50.812;4.934;2023-04-22T14:59:00;7.70;;;4.50;;
15833;SDS011;8017;50.812;4.934;2023-04-22T15:02:02;6.97;;;4.60;;
15833;SDS011;8017;50.812;4.934;2023-04-22T15:05:04;5.47;;;4.70;;
15833;SDS011;8017;50.812;4.934;2023-04-22T15:08:08;6.60;;;4.77;;
15833;SDS011;8017;50.812;4.934;2023-04-22T15:11:09;5.53;;;4.93;;
15833;SDS011;8017;50.812;4.934;2023-04-22T15:14:11;5.77;;;5.27;;
15833;SDS011;8017;50.812;4.934;2023-04-22T15:17:13;5.70;;;4.97;;
15833;SDS011;8017;50.812;4.934;2023-04-22T15:20:15;6.20;;;4.40;;
15833;SDS011;8017;50.812;4.934;2023-04-22T15:23:19;3.63;;;2.73;;
15833;SDS011;8017;50.812;4.934;2023-04-22T15:26:22;2.53;;;2.10;;
15833;SDS011;8017;50.812;4.934;2023-04-22T15:29:24;2.67;;;1.37;;
15833;SDS011;8017;50.812;4.934;2023-04-22T15:32:27;1.40;;;1.30;;
15833;SDS011;8017;50.812;4.934;2023-04-22T15:35:29;2.93;;;2.30;;
15833;SDS011;8017;50.812;4.934;2023-04-22T15:38:32;2.87;;;2.60;;
15833;SDS011;8017;50.812;4.934;2023-04-22T15:41:34;3.63;;;3.33;;
15833;SDS011;8017;50.812;4.934;2023-04-22T15:44:36;4.70;;;4.30;;
15833;SDS011;8017;50.812;4.934;2023-04-22T15:47:39;5.63;;;5.13;;
15833;SDS011;8017;50.812;4.934;2023-04-22T15:50:41;6.80;;;6.13;;
15833;SDS011;8017;50.812;4.934;2023-04-22T15:53:44;7.30;;;6.60;;
15833;SDS011;8017;50.812;4.934;2023-04-22T15:56:46;7.57;;;6.87;;
15833;SDS011;8017;50.812;4.934;2023-04-22T15:59:48;8.13;;;7.43;;
15833;SDS011;8017;50.812;4.934;2023-04-22T16:02:50;8.23;;;7.53;;
15833;SDS011;8017;50.812;4.934;2023-04-22T16:05:54;9.53;;;8.63;;
15833;SDS011;8017;50.812;4.934;2023-04-22T16:08:58;8.83;;;8.03;;
15833;SDS011;8017;50.812;4.934;2023-04-22T16:12:00;9.83;;;8.93;;
15833;SDS011;8017;50.812;4.934;2023-04-22T16:15:02;10.17;;;9.17;;
15833;SDS011;8017;50.812;4.934;2023-04-22T16:18:04;9.73;;;8.83;;
15833;SDS011;8017;50.812;4.934;2023-04-22T16:21:07;9.93;;;9.03;;
15833;SDS011;8017;50.812;4.934;2023-04-22T16:24:10;8.83;;;8.03;;
15833;SDS011;8017;50.812;4.934;2023-04-22T16:27:13;8.63;;;7.83;;
15833;SDS011;8017;50.812;4.934;2023-04-22T16:30:17;8.30;;;7.50;;
15833;SDS011;8017;50.812;4.934;2023-04-22T16:33:18;8.80;;;8.00;;
15833;SDS011;8017;50.812;4.934;2023-04-22T16:36:20;8.87;;;7.63;;
15833;SDS011;8017;50.812;4.934;2023-04-22T16:39:24;8.33;;;7.53;;
15833;SDS011;8017;50.812;4.934;2023-04-22T16:42:26;7.93;;;7.23;;
15833;SDS011;8017;50.812;4.934;2023-04-22T16:45:29;8.33;;;7.53;;
15833;SDS011;8017;50.812;4.934;2023-04-22T16:48:31;9.50;;;8.60;;
15833;SDS011;8017;50.812;4.934;2023-04-22T16:51:33;9.40;;;8.10;;
15833;SDS011;8017;50.812;4.934;2023-04-22T16:54:36;9.63;;;8.20;;
15833;SDS011;8017;50.812;4.934;2023-04-22T16:57:39;9.60;;;8.70;;
15833;SDS011;8017;50.812;4.934;2023-04-22T17:00:41;9.40;;;8.50;;
15833;SDS011;8017;50.812;4.934;2023-04-22T17:03:43;9.77;;;8.77;;
15833;SDS011;8017;50.812;4.934;2023-04-22T17:06:45;12.57;;;11.30;;
15833;SDS011;8017;50.812;4.934;2023-04-22T17:09:49;12.90;;;11.53;;
15833;SDS011;8017;50.812;4.934;2023-04-22T17:12:51;11.37;;;10.27;;
15833;SDS011;8017;50.812;4.934;2023-04-22T17:15:53;11.63;;;10.40;;
15833;SDS011;8017;50.812;4.934;2023-04-22T17:18:55;10.67;;;9.57;;
15833;SDS011;8017;50.812;4.934;2023-04-22T17:21:56;11.23;;;9.93;;
15833;SDS011;8017;50.812;4.934;2023-04-22T17:25:02;13.00;;;11.20;;
15833;SDS011;8017;50.812;4.934;2023-04-22T17:28:04;10.97;;;9.97;;
15833;SDS011;8017;50.812;4.934;2023-04-22T17:31:06;11.20;;;10.00;;
15833;SDS011;8017;50.812;4.934;2023-04-22T17:34:08;11.80;;;9.97;;
15833;SDS011;8017;50.812;4.934;2023-04-22T17:37:10;11.33;;;10.20;;
15833;SDS011;8017;50.812;4.934;2023-04-22T17:40:13;11.23;;;10.10;;
15833;SDS011;8017;50.812;4.934;2023-04-22T17:43:15;12.47;;;11.10;;
15833;SDS011;8017;50.812;4.934;2023-04-22T17:46:17;12.17;;;10.93;;
15833;SDS011;8017;50.812;4.934;2023-04-22T17:49:19;13.27;;;11.37;;
15833;SDS011;8017;50.812;4.934;2023-04-22T17:52:21;12.73;;;11.43;;
15833;SDS011;8017;50.812;4.934;2023-04-22T17:55:24;12.97;;;11.67;;
15833;SDS011;8017;50.812;4.934;2023-04-22T17:58:29;14.57;;;12.40;;
15833;SDS011;8017;50.812;4.934;2023-04-22T18:01:31;16.40;;;13.20;;
15833;SDS011;8017;50.812;4.934;2023-04-22T18:04:32;15.33;;;12.40;;
15833;SDS011;8017;50.812;4.934;2023-04-22T18:07:35;14.47;;;12.00;;
15833;SDS011;8017;50.812;4.934;2023-04-22T18:10:38;14.37;;;12.87;;
15833;SDS011;8017;50.812;4.934;2023-04-22T18:13:40;15.53;;;13.27;;
15833;SDS011;8017;50.812;4.934;2023-04-22T18:16:42;14.13;;;12.57;;
15833;SDS011;8017;50.812;4.934;2023-04-22T18:19:44;13.73;;;12.33;;
15833;SDS011;8017;50.812;4.934;2023-04-22T18:22:48;15.30;;;12.53;;
15833;SDS011;8017;50.812;4.934;2023-04-22T18:25:52;12.50;;;11.20;;
15833;SDS011;8017;50.812;4.934;2023-04-22T18:28:54;13.53;;;12.13;;